sensor_id;sensor_type;location;lat;lon;timestamp;pressure;altitude;pressure_sealevel;temperature;humidity
57232;BME280;43488;46.934;8.276;2023-09-18T00:01:03;96016.16;;;19.17;87.41
57232;BME280;43488;46.934;8.276;2023-09-18T00:03:31;96021.00;;;19.15;88.44
57232;BME280;43488;46.934;8.276;2023-09-18T00:05:59;96024.47;;;19.11;88.60
57232;BME280;43488;46.934;8.276;2023-09-18T00:08:31;96034.88;;;19.12;88.87
57232;BME280;43488;46.934;8.276;2023-09-18T00:10:59;96028.72;;;19.17;88.71
57232;BME280;43488;46.934;8.276;2023-09-18T00:13:37;96022.81;;;19.20;88.26
57232;BME280;43488;46.934;8.276;2023-09-18T00:16:04;96027.41;;;19.14;88.55
57232;BME280;43488;46.934;8.276;2023-09-18T00:18:32;96023.09;;;19.18;89.20
57232;BME280;43488;46.934;8.276;2023-09-18T00:21:00;96005.50;;;19.17;89.51
57232;BME280;43488;46.934;8.276;2023-09-18T00:23:28;96009.75;;;19.18;88.78
57232;BME280;43488;46.934;8.276;2023-09-18T00:25:55;96003.09;;;19.21;88.46
57232;BME280;43488;46.934;8.276;2023-09-18T00:28:22;96007.66;;;19.20;88.02
57232;BME280;43488;46.934;8.276;2023-09-18T00:30:50;96004.75;;;19.12;88.80
57232;BME280;43488;46.934;8.276;2023-09-18T00:33:18;95999.13;;;19.08;89.07
57232;BME280;43488;46.934;8.276;2023-09-18T00:35:51;95991.66;;;19.10;89.37
57232;BME280;43488;46.934;8.276;2023-09-18T00:38:19;95982.38;;;19.02;88.64
57232;BME280;43488;46.934;8.276;2023-09-18T00:40:46;95967.16;;;19.03;88.62
57232;BME280;43488;46.934;8.276;2023-09-18T00:43:14;95956.22;;;19.04;88.79
57232;BME280;43488;46.934;8.276;2023-09-18T00:45:45;95957.81;;;19.00;88.09
57232;BME280;43488;46.934;8.276;2023-09-18T00:48:16;95956.00;;;18.91;89.65
57232;BME280;43488;46.934;8.276;2023-09-18T00:50:44;95953.31;;;18.96;89.92
57232;BME280;43488;46.934;8.276;2023-09-18T00:53:21;95950.66;;;18.96;90.02
57232;BME280;43488;46.934;8.276;2023-09-18T00:55:52;95948.81;;;18.86;90.27
57232;BME280;43488;46.934;8.276;2023-09-18T00:58:21;95945.59;;;18.89;90.50
57232;BME280;43488;46.934;8.276;2023-09-18T01:00:49;95942.69;;;18.86;90.61
57232;BME280;43488;46.934;8.276;2023-09-18T01:03:21;95944.34;;;18.77;90.75
57232;BME280;43488;46.934;8.276;2023-09-18T01:05:50;95943.50;;;18.81;91.00
57232;BME280;43488;46.934;8.276;2023-09-18T01:08:17;95937.38;;;18.81;90.12
57232;BME280;43488;46.934;8.276;2023-09-18T01:11:09;95933.34;;;18.83;89.89
57232;BME280;43488;46.934;8.276;2023-09-18T01:13:45;95925.66;;;18.77;89.70
57232;BME280;43488;46.934;8.276;2023-09-18T01:16:25;95924.34;;;18.69;89.43
57232;BME280;43488;46.934;8.276;2023-09-18T01:18:54;95928.38;;;18.66;90.23
57232;BME280;43488;46.934;8.276;2023-09-18T01:21:22;95923.84;;;18.67;90.94
57232;BME280;43488;46.934;8.276;2023-09-18T01:23:50;95912.63;;;18.65;90.73
57232;BME280;43488;46.934;8.276;2023-09-18T01:26:19;95923.03;;;18.61;91.37
57232;BME280;43488;46.934;8.276;2023-09-18T01:28:46;95928.34;;;18.61;91.14
57232;BME280;43488;46.934;8.276;2023-09-18T01:31:13;95918.47;;;18.62;90.80
57232;BME280;43488;46.934;8.276;2023-09-18T01:33:41;95916.38;;;18.54;91.22
57232;BME280;43488;46.934;8.276;2023-09-18T01:36:10;95919.84;;;18.54;91.17
57232;BME280;43488;46.934;8.276;2023-09-18T01:38:38;95908.13;;;18.50;91.30
57232;BME280;43488;46.934;8.276;2023-09-18T01:41:09;95903.03;;;18.54;91.41
57232;BME280;43488;46.934;8.276;2023-09-18T01:43:37;95904.63;;;18.55;90.72
57232;BME280;43488;46.934;8.276;2023-09-18T01:46:05;95899.88;;;18.46;91.40
57232;BME280;43488;46.934;8.276;2023-09-18T01:48:33;95909.72;;;18.51;91.53
57232;BME280;43488;46.934;8.276;2023-09-18T01:51:00;95901.97;;;18.55;91.54
57232;BME280;43488;46.934;8.276;2023-09-18T01:53:27;95906.28;;;18.45;91.82
57232;BME280;43488;46.934;8.276;2023-09-18T01:55:55;95899.09;;;18.41;91.99
57232;BME280;43488;46.934;8.276;2023-09-18T01:58:23;95902.84;;;18.40;92.49
57232;BME280;43488;46.934;8.276;2023-09-18T02:00:51;95905.50;;;18.40;92.94
57232;BME280;43488;46.934;8.276;2023-09-18T02:03:19;95921.22;;;18.41;92.92
57232;BME280;43488;46.934;8.276;2023-09-18T02:05:47;95922.00;;;18.42;93.13
57232;BME280;43488;46.934;8.276;2023-09-18T02:08:16;95933.47;;;18.42;93.37
57232;BME280;43488;46.934;8.276;2023-09-18T02:10:43;95950.53;;;18.41;92.96
57232;BME280;43488;46.934;8.276;2023-09-18T02:13:11;95967.31;;;18.47;92.60
57232;BME280;43488;46.934;8.276;2023-09-18T02:15:39;95969.97;;;18.52;92.40
57232;BME280;43488;46.934;8.276;2023-09-18T02:18:06;95978.50;;;18.49;92.75
57232;BME280;43488;46.934;8.276;2023-09-18T02:20:40;95979.56;;;18.58;92.64
57232;BME280;43488;46.934;8.276;2023-09-18T02:23:09;95993.94;;;18.57;92.01
57232;BME280;43488;46.934;8.276;2023-09-18T02:25:36;95998.19;;;18.63;92.16
57232;BME280;43488;46.934;8.276;2023-09-18T02:28:04;96016.59;;;18.55;93.68
57232;BME280;43488;46.934;8.276;2023-09-18T02:30:31;96020.06;;;18.55;93.69
57232;BME280;43488;46.934;8.276;2023-09-18T02:32:58;96024.31;;;18.46;94.86
57232;BME280;43488;46.934;8.276;2023-09-18T02:35:26;96037.41;;;18.47;94.02
57232;BME280;43488;46.934;8.276;2023-09-18T02:37:53;96036.63;;;18.47;94.41
57232;BME280;43488;46.934;8.276;2023-09-18T02:40:21;96028.88;;;18.45;94.52
57232;BME280;43488;46.934;8.276;2023-09-18T02:42:48;96043.00;;;18.31;93.83
57232;BME280;43488;46.934;8.276;2023-09-18T02:45:15;96039.53;;;18.25;95.28
57232;BME280;43488;46.934;8.276;2023-09-18T02:47:42;96061.13;;;18.29;95.73
57232;BME280;43488;46.934;8.276;2023-09-18T02:50:10;96066.72;;;18.32;94.89
57232;BME280;43488;46.934;8.276;2023-09-18T02:52:49;96067.00;;;18.31;92.23
57232;BME280;43488;46.934;8.276;2023-09-18T02:55:17;96073.09;;;18.36;94.10
57232;BME280;43488;46.934;8.276;2023-09-18T02:57:46;96082.19;;;18.30;95.28
57232;BME280;43488;46.934;8.276;2023-09-18T03:00:14;96084.03;;;18.35;94.74
57232;BME280;43488;46.934;8.276;2023-09-18T03:02:42;96082.44;;;18.39;95.59
57232;BME280;43488;46.934;8.276;2023-09-18T03:05:09;96090.97;;;18.36;94.46
57232;BME280;43488;46.934;8.276;2023-09-18T03:07:36;96097.34;;;18.35;93.53
57232;BME280;43488;46.934;8.276;2023-09-18T03:10:04;96103.22;;;18.37;92.72
57232;BME280;43488;46.934;8.276;2023-09-18T03:12:33;96106.69;;;18.47;92.32
57232;BME280;43488;46.934;8.276;2023-09-18T03:15:00;96107.50;;;18.38;93.89
57232;BME280;43488;46.934;8.276;2023-09-18T03:17:42;96097.66;;;18.38;93.94
57232;BME280;43488;46.934;8.276;2023-09-18T03:20:13;96087.78;;;18.34;94.31
57232;BME280;43488;46.934;8.276;2023-09-18T03:22:41;96103.47;;;18.35;94.69
57232;BME280;43488;46.934;8.276;2023-09-18T03:25:09;96096.56;;;18.39;94.08
57232;BME280;43488;46.934;8.276;2023-09-18T03:27:37;96103.22;;;18.37;95.38
57232;BME280;43488;46.934;8.276;2023-09-18T03:30:05;96103.78;;;18.39;95.32
57232;BME280;43488;46.934;8.276;2023-09-18T03:32:32;96090.97;;;18.36;95.05
57232;BME280;43488;46.934;8.276;2023-09-18T03:35:00;96087.50;;;18.40;94.98
57232;BME280;43488;46.934;8.276;2023-09-18T03:37:27;96089.09;;;18.36;95.55
57232;BME280;43488;46.934;8.276;2023-09-18T03:39:54;96087.78;;;18.39;95.20
57232;BME280;43488;46.934;8.276;2023-09-18T03:42:26;96072.59;;;18.39;94.95
57232;BME280;43488;46.934;8.276;2023-09-18T03:44:53;96059.78;;;18.26;96.05
57232;BME280;43488;46.934;8.276;2023-09-18T03:47:20;96055.53;;;18.30;96.39
57232;BME280;43488;46.934;8.276;2023-09-18T03:49:48;96053.66;;;18.31;96.48
57232;BME280;43488;46.934;8.276;2023-09-18T03:52:15;96059.53;;;18.33;95.99
57232;BME280;43488;46.934;8.276;2023-09-18T03:54:43;96071.25;;;18.32;95.52
57232;BME280;43488;46.934;8.276;2023-09-18T03:57:11;96065.63;;;18.28;95.90
57232;BME280;43488;46.934;8.276;2023-09-18T03:59:38;96060.03;;;18.19;96.29
57232;BME280;43488;46.934;8.276;2023-09-18T04:02:05;96065.63;;;18.18;97.01
57232;BME280;43488;46.934;8.276;2023-09-18T04:04:33;96064.84;;;18.17;97.23
57232;BME280;43488;46.934;8.276;2023-09-18T04:07:06;96058.72;;;18.17;96.87
57232;BME280;43488;46.934;8.276;2023-09-18T04:09:33;96065.38;;;18.25;96.91
57232;BME280;43488;46.934;8.276;2023-09-18T04:12:14;96060.06;;;18.25;96.03
57232;BME280;43488;46.934;8.276;2023-09-18T04:14:42;96048.34;;;18.31;95.16
57232;BME280;43488;46.934;8.276;2023-09-18T04:17:09;96041.13;;;18.36;95.13
57232;BME280;43488;46.934;8.276;2023-09-18T04:19:37;96031.28;;;18.32;95.58
57232;BME280;43488;46.934;8.276;2023-09-18T04:22:14;96016.88;;;18.28;96.07
57232;BME280;43488;46.934;8.276;2023-09-18T04:24:41;96024.88;;;18.28;95.84
57232;BME280;43488;46.934;8.276;2023-09-18T04:27:09;96031.28;;;18.27;96.10
57232;BME280;43488;46.934;8.276;2023-09-18T04:29:38;96052.59;;;18.16;96.97
57232;BME280;43488;46.934;8.276;2023-09-18T04:32:06;96057.38;;;18.25;97.35
57232;BME280;43488;46.934;8.276;2023-09-18T04:34:33;96061.94;;;18.29;96.99
57232;BME280;43488;46.934;8.276;2023-09-18T04:37:03;96066.97;;;18.26;96.89
57232;BME280;43488;46.934;8.276;2023-09-18T04:39:31;96070.69;;;18.19;97.92
57232;BME280;43488;46.934;8.276;2023-09-18T04:42:11;96059.00;;;18.21;98.13
57232;BME280;43488;46.934;8.276;2023-09-18T04:44:39;96078.44;;;18.26;97.54
57232;BME280;43488;46.934;8.276;2023-09-18T04:47:06;96065.38;;;18.25;97.99
57232;BME280;43488;46.934;8.276;2023-09-18T04:49:34;96060.06;;;18.30;98.71
57232;BME280;43488;46.934;8.276;2023-09-18T04:52:04;96064.84;;;18.28;98.85
57232;BME280;43488;46.934;8.276;2023-09-18T04:54:32;96066.44;;;18.34;98.77
57232;BME280;43488;46.934;8.276;2023-09-18T04:57:00;96066.47;;;18.39;98.68
57232;BME280;43488;46.934;8.276;2023-09-18T04:59:27;96058.19;;;18.51;99.11
57232;BME280;43488;46.934;8.276;2023-09-18T05:02:04;96057.38;;;18.55;97.90
57232;BME280;43488;46.934;8.276;2023-09-18T05:04:34;96070.44;;;18.52;98.03
57232;BME280;43488;46.934;8.276;2023-09-18T05:07:02;96071.50;;;18.51;98.25
57232;BME280;43488;46.934;8.276;2023-09-18T05:09:29;96061.13;;;18.49;98.20
57232;BME280;43488;46.934;8.276;2023-09-18T05:11:58;96061.91;;;18.50;98.47
57232;BME280;43488;46.934;8.276;2023-09-18T05:14:25;96060.84;;;18.51;98.63
57232;BME280;43488;46.934;8.276;2023-09-18T05:16:53;96065.91;;;18.52;99.22
57232;BME280;43488;46.934;8.276;2023-09-18T05:19:40;96069.91;;;18.60;99.48
57232;BME280;43488;46.934;8.276;2023-09-18T05:22:09;96063.25;;;18.57;99.55
57232;BME280;43488;46.934;8.276;2023-09-18T05:24:40;96051.78;;;18.57;99.69
57232;BME280;43488;46.934;8.276;2023-09-18T05:27:07;96055.78;;;18.59;99.89
57232;BME280;43488;46.934;8.276;2023-09-18T05:29:35;96053.63;;;18.61;100.00
57232;BME280;43488;46.934;8.276;2023-09-18T05:32:05;96058.22;;;18.66;100.00
57232;BME280;43488;46.934;8.276;2023-09-18T05:34:32;96059.53;;;18.68;100.00
57232;BME280;43488;46.934;8.276;2023-09-18T05:36:59;96068.84;;;18.71;100.00
57232;BME280;43488;46.934;8.276;2023-09-18T05:39:26;96062.44;;;18.72;100.00
57232;BME280;43488;46.934;8.276;2023-09-18T05:41:54;96059.25;;;18.70;100.00
57232;BME280;43488;46.934;8.276;2023-09-18T05:44:22;96072.31;;;18.77;100.00
57232;BME280;43488;46.934;8.276;2023-09-18T05:46:50;96080.59;;;18.75;100.00
57232;BME280;43488;46.934;8.276;2023-09-18T05:49:20;96084.84;;;18.76;100.00
57232;BME280;43488;46.934;8.276;2023-09-18T05:51:48;96083.78;;;18.72;100.00
57232;BME280;43488;46.934;8.276;2023-09-18T05:54:15;96070.97;;;18.74;100.00
57232;BME280;43488;46.934;8.276;2023-09-18T05:56:45;96084.81;;;18.81;100.00
57232;BME280;43488;46.934;8.276;2023-09-18T05:59:12;96082.16;;;18.86;99.67
57232;BME280;43488;46.934;8.276;2023-09-18T06:01:39;96090.94;;;18.92;98.79
57232;BME280;43488;46.934;8.276;2023-09-18T06:04:08;96092.00;;;18.96;98.00
57232;BME280;43488;46.934;8.276;2023-09-18T06:06:38;96091.47;;;18.99;98.36
57232;BME280;43488;46.934;8.276;2023-09-18T06:09:06;96096.28;;;19.02;98.38
57232;BME280;43488;46.934;8.276;2023-09-18T06:12:26;96096.53;;;19.06;98.77
57232;BME280;43488;46.934;8.276;2023-09-18T06:14:53;96103.69;;;19.10;98.83
57232;BME280;43488;46.934;8.276;2023-09-18T06:17:21;96103.97;;;19.14;97.70
57232;BME280;43488;46.934;8.276;2023-09-18T06:19:50;96113.03;;;19.18;98.38
57232;BME280;43488;46.934;8.276;2023-09-18T06:22:25;96126.88;;;19.20;99.87
57232;BME280;43488;46.934;8.276;2023-09-18T06:24:53;96129.56;;;19.20;100.00
57232;BME280;43488;46.934;8.276;2023-09-18T06:27:20;96145.03;;;19.18;100.00
57232;BME280;43488;46.934;8.276;2023-09-18T06:29:50;96135.72;;;19.20;100.00
57232;BME280;43488;46.934;8.276;2023-09-18T06:32:23;96139.44;;;19.24;100.00
57232;BME280;43488;46.934;8.276;2023-09-18T06:35:20;96147.97;;;19.31;99.48
57232;BME280;43488;46.934;8.276;2023-09-18T06:37:55;96149.28;;;19.34;99.36
57232;BME280;43488;46.934;8.276;2023-09-18T06:40:25;96157.56;;;19.32;99.17
57232;BME280;43488;46.934;8.276;2023-09-18T06:42:59;96157.28;;;19.34;98.48
57232;BME280;43488;46.934;8.276;2023-09-18T06:45:28;96158.09;;;19.35;97.33
57232;BME280;43488;46.934;8.276;2023-09-18T06:47:59;96166.91;;;19.30;96.62
57232;BME280;43488;46.934;8.276;2023-09-18T06:50:27;96173.06;;;19.30;97.10
57232;BME280;43488;46.934;8.276;2023-09-18T06:52:54;96171.94;;;19.37;98.70
57232;BME280;43488;46.934;8.276;2023-09-18T06:55:21;96174.63;;;19.42;99.58
57232;BME280;43488;46.934;8.276;2023-09-18T06:57:49;96178.88;;;19.43;99.48
57232;BME280;43488;46.934;8.276;2023-09-18T07:01:00;96175.69;;;19.41;100.00
57232;BME280;43488;46.934;8.276;2023-09-18T07:03:27;96186.88;;;19.43;100.00
57232;BME280;43488;46.934;8.276;2023-09-18T07:06:22;96191.16;;;19.49;100.00
57232;BME280;43488;46.934;8.276;2023-09-18T07:08:50;96188.72;;;19.47;100.00
57232;BME280;43488;46.934;8.276;2023-09-18T07:13:49;96187.69;;;19.38;100.00
57232;BME280;43488;46.934;8.276;2023-09-18T07:16:16;96193.31;;;19.37;100.00
57232;BME280;43488;46.934;8.276;2023-09-18T07:33:27;96224.56;;;19.16;100.00
57232;BME280;43488;46.934;8.276;2023-09-18T07:35:54;96238.19;;;19.14;100.00
57232;BME280;43488;46.934;8.276;2023-09-18T07:51:48;96260.31;;;19.30;100.00
57232;BME280;43488;46.934;8.276;2023-09-18T07:54:15;96266.47;;;19.30;100.00
57232;BME280;43488;46.934;8.276;2023-09-18T07:59:30;96260.06;;;19.31;100.00
57232;BME280;43488;46.934;8.276;2023-09-18T08:01:58;96262.72;;;19.31;100.00
57232;BME280;43488;46.934;8.276;2023-09-18T08:08:45;96255.25;;;19.08;100.00
57232;BME280;43488;46.934;8.276;2023-09-18T08:11:13;96265.63;;;19.20;100.00
57232;BME280;43488;46.934;8.276;2023-09-18T08:13:40;96257.38;;;19.21;100.00
57232;BME280;43488;46.934;8.276;2023-09-18T08:22:02;96299.28;;;19.26;100.00
57232;BME280;43488;46.934;8.276;2023-09-18T08:24:31;96297.69;;;19.30;100.00
57232;BME280;43488;46.934;8.276;2023-09-18T08:26:58;96311.28;;;19.33;100.00
57232;BME280;43488;46.934;8.276;2023-09-18T08:29:25;96308.06;;;19.37;100.00
57232;BME280;43488;46.934;8.276;2023-09-18T08:31:53;96316.63;;;19.39;100.00
57232;BME280;43488;46.934;8.276;2023-09-18T08:34:21;96314.50;;;19.41;100.00
57232;BME280;43488;46.934;8.276;2023-09-18T08:36:48;96315.00;;;19.38;100.00
57232;BME280;43488;46.934;8.276;2023-09-18T08:39:34;96326.25;;;19.40;100.00
57232;BME280;43488;46.934;8.276;2023-09-18T08:42:09;96321.97;;;19.33;100.00
57232;BME280;43488;46.934;8.276;2023-09-18T08:44:39;96335.03;;;19.35;100.00
57232;BME280;43488;46.934;8.276;2023-09-18T08:47:11;96327.28;;;19.33;100.00
57232;BME280;43488;46.934;8.276;2023-09-18T08:49:41;96329.16;;;19.33;100.00
57232;BME280;43488;46.934;8.276;2023-09-18T08:52:10;96341.72;;;19.32;100.00
57232;BME280;43488;46.934;8.276;2023-09-18T08:54:39;96346.25;;;19.32;100.00
57232;BME280;43488;46.934;8.276;2023-09-18T08:57:27;96350.25;;;19.40;100.00
57232;BME280;43488;46.934;8.276;2023-09-18T08:59:57;96355.59;;;19.40;100.00
57232;BME280;43488;46.934;8.276;2023-09-18T09:02:38;96371.06;;;19.43;100.00
57232;BME280;43488;46.934;8.276;2023-09-18T09:05:06;96365.75;;;19.48;100.00
57232;BME280;43488;46.934;8.276;2023-09-18T09:07:33;96359.34;;;19.49;100.00
57232;BME280;43488;46.934;8.276;2023-09-18T09:10:01;96365.22;;;19.41;100.00
57232;BME280;43488;46.934;8.276;2023-09-18T09:13:18;96376.94;;;19.45;100.00
57232;BME280;43488;46.934;8.276;2023-09-18T09:16:05;96383.88;;;19.46;100.00
57232;BME280;43488;46.934;8.276;2023-09-18T09:23:05;96395.91;;;19.48;100.00
57232;BME280;43488;46.934;8.276;2023-09-18T09:26:15;96396.44;;;19.50;100.00
57232;BME280;43488;46.934;8.276;2023-09-18T09:28:46;96406.59;;;19.53;100.00
57232;BME280;43488;46.934;8.276;2023-09-18T09:31:28;96407.38;;;19.54;100.00
57232;BME280;43488;46.934;8.276;2023-09-18T09:39:23;96411.94;;;19.74;100.00
57232;BME280;43488;46.934;8.276;2023-09-18T09:41:52;96406.38;;;19.75;100.00
57232;BME280;43488;46.934;8.276;2023-09-18T09:47:54;96420.47;;;20.01;100.00
57232;BME280;43488;46.934;8.276;2023-09-18T10:14:54;96425.56;;;20.13;100.00
57232;BME280;43488;46.934;8.276;2023-09-18T10:20:09;96437.84;;;20.24;100.00
57232;BME280;43488;46.934;8.276;2023-09-18T10:22:49;96424.44;;;20.29;100.00
57232;BME280;43488;46.934;8.276;2023-09-18T10:25:24;96426.84;;;20.21;100.00
57232;BME280;43488;46.934;8.276;2023-09-18T10:28:33;96435.69;;;20.26;100.00
57232;BME280;43488;46.934;8.276;2023-09-18T10:31:01;96431.13;;;20.27;100.00
57232;BME280;43488;46.934;8.276;2023-09-18T10:33:31;96423.91;;;20.27;100.00
57232;BME280;43488;46.934;8.276;2023-09-18T10:36:00;96423.41;;;20.30;100.00
57232;BME280;43488;46.934;8.276;2023-09-18T10:38:30;96415.91;;;20.32;100.00
57232;BME280;43488;46.934;8.276;2023-09-18T10:40:58;96421.50;;;20.46;100.00
57232;BME280;43488;46.934;8.276;2023-09-18T10:46:21;96411.59;;;20.41;100.00
57232;BME280;43488;46.934;8.276;2023-09-18T10:48:49;96401.13;;;20.55;100.00
57232;BME280;43488;46.934;8.276;2023-09-18T10:51:21;96400.34;;;20.55;100.00
57232;BME280;43488;46.934;8.276;2023-09-18T11:01:42;96387.91;;;20.84;100.00
57232;BME280;43488;46.934;8.276;2023-09-18T11:04:10;96389.50;;;20.90;100.00
57232;BME280;43488;46.934;8.276;2023-09-18T11:34:35;96352.88;;;20.86;92.83
57232;BME280;43488;46.934;8.276;2023-09-18T11:44:53;96348.41;;;20.66;93.52
57232;BME280;43488;46.934;8.276;2023-09-18T11:49:52;96342.88;;;20.52;92.52
57232;BME280;43488;46.934;8.276;2023-09-18T11:52:28;96340.50;;;20.40;92.62
57232;BME280;43488;46.934;8.276;2023-09-18T12:13:26;96306.38;;;20.12;100.00
57232;BME280;43488;46.934;8.276;2023-09-18T12:23:46;96307.97;;;20.13;100.00
57232;BME280;43488;46.934;8.276;2023-09-18T12:29:00;96319.44;;;20.18;100.00
57232;BME280;43488;46.934;8.276;2023-09-18T12:36:43;96295.28;;;20.39;92.62
57232;BME280;43488;46.934;8.276;2023-09-18T12:43:00;96282.72;;;20.50;89.03
57232;BME280;43488;46.934;8.276;2023-09-18T12:46:23;96296.91;;;20.50;87.74
57232;BME280;43488;46.934;8.276;2023-09-18T12:48:50;96303.84;;;20.51;88.28
57232;BME280;43488;46.934;8.276;2023-09-18T12:51:40;96309.47;;;20.44;86.44
57232;BME280;43488;46.934;8.276;2023-09-18T12:54:08;96301.75;;;20.43;89.18
57232;BME280;43488;46.934;8.276;2023-09-18T13:07:13;96264.03;;;20.39;87.30
57232;BME280;43488;46.934;8.276;2023-09-18T13:15:06;96256.09;;;20.24;86.12
57232;BME280;43488;46.934;8.276;2023-09-18T13:17:44;96255.53;;;20.27;84.87
57232;BME280;43488;46.934;8.276;2023-09-18T13:20:15;96241.03;;;20.38;83.95
57232;BME280;43488;46.934;8.276;2023-09-18T13:22:54;96252.78;;;20.42;83.99
57232;BME280;43488;46.934;8.276;2023-09-18T13:25:31;96239.63;;;20.56;85.70
57232;BME280;43488;46.934;8.276;2023-09-18T13:28:07;96239.28;;;20.68;86.47
57232;BME280;43488;46.934;8.276;2023-09-18T13:31:13;96239.22;;;20.78;88.13
57232;BME280;43488;46.934;8.276;2023-09-18T13:33:40;96234.03;;;20.92;88.96
57232;BME280;43488;46.934;8.276;2023-09-18T13:36:07;96231.91;;;20.94;86.90
57232;BME280;43488;46.934;8.276;2023-09-18T13:38:35;96221.41;;;20.97;82.75
57232;BME280;43488;46.934;8.276;2023-09-18T13:41:03;96227.47;;;21.08;80.40
57232;BME280;43488;46.934;8.276;2023-09-18T13:43:32;96237.88;;;21.15;77.33
57232;BME280;43488;46.934;8.276;2023-09-18T13:46:01;96243.94;;;21.25;77.11
57232;BME280;43488;46.934;8.276;2023-09-18T13:49:09;96232.38;;;21.35;77.50
57232;BME280;43488;46.934;8.276;2023-09-18T13:52:35;96236.94;;;21.29;79.57
57232;BME280;43488;46.934;8.276;2023-09-18T13:57:39;96233.81;;;21.17;74.74
57232;BME280;43488;46.934;8.276;2023-09-18T14:00:08;96231.47;;;21.11;72.11
57232;BME280;43488;46.934;8.276;2023-09-18T14:02:41;96213.41;;;20.97;72.51
57232;BME280;43488;46.934;8.276;2023-09-18T14:05:19;96210.00;;;20.87;73.72
57232;BME280;43488;46.934;8.276;2023-09-18T14:07:47;96209.50;;;20.85;74.00
57232;BME280;43488;46.934;8.276;2023-09-18T14:16:01;96229.59;;;20.77;74.89
57232;BME280;43488;46.934;8.276;2023-09-18T14:18:36;96241.34;;;20.81;74.95
57232;BME280;43488;46.934;8.276;2023-09-18T14:21:03;96248.78;;;20.84;70.96
57232;BME280;43488;46.934;8.276;2023-09-18T14:23:32;96252.81;;;20.87;69.39
57232;BME280;43488;46.934;8.276;2023-09-18T14:26:13;96250.94;;;20.82;65.91
57232;BME280;43488;46.934;8.276;2023-09-18T14:28:42;96249.38;;;20.81;65.84
57232;BME280;43488;46.934;8.276;2023-09-18T14:31:31;96248.59;;;20.76;64.39
57232;BME280;43488;46.934;8.276;2023-09-18T14:33:59;96245.13;;;20.75;63.32
57232;BME280;43488;46.934;8.276;2023-09-18T14:36:51;96238.44;;;20.72;63.13
57232;BME280;43488;46.934;8.276;2023-09-18T14:39:28;96227.81;;;20.67;62.90
57232;BME280;43488;46.934;8.276;2023-09-18T14:42:13;96231.28;;;20.63;64.78
57232;BME280;43488;46.934;8.276;2023-09-18T14:44:43;96226.25;;;20.56;65.10
57232;BME280;43488;46.934;8.276;2023-09-18T14:47:12;96232.97;;;20.54;64.62
57232;BME280;43488;46.934;8.276;2023-09-18T14:53:07;96219.63;;;20.49;63.11
57232;BME280;43488;46.934;8.276;2023-09-18T14:55:51;96218.28;;;20.51;63.37
57232;BME280;43488;46.934;8.276;2023-09-18T14:58:19;96221.47;;;20.53;63.53
57232;BME280;43488;46.934;8.276;2023-09-18T15:00:49;96212.66;;;20.48;63.06
57232;BME280;43488;46.934;8.276;2023-09-18T15:03:20;96211.63;;;20.49;63.44
57232;BME280;43488;46.934;8.276;2023-09-18T15:11:15;96215.59;;;20.51;62.38
57232;BME280;43488;46.934;8.276;2023-09-18T15:13:46;96213.72;;;20.52;62.42
57232;BME280;43488;46.934;8.276;2023-09-18T15:18:47;96197.97;;;20.50;61.39
57232;BME280;43488;46.934;8.276;2023-09-18T15:21:35;96180.56;;;20.53;61.10
57232;BME280;43488;46.934;8.276;2023-09-18T15:24:03;96162.34;;;20.60;62.34
57232;BME280;43488;46.934;8.276;2023-09-18T15:26:30;96151.28;;;20.66;63.11
57232;BME280;43488;46.934;8.276;2023-09-18T15:28:58;96142.44;;;20.71;62.47
57232;BME280;43488;46.934;8.276;2023-09-18T15:31:27;96143.94;;;20.82;62.03
57232;BME280;43488;46.934;8.276;2023-09-18T15:33:54;96135.09;;;20.87;62.07
57232;BME280;43488;46.934;8.276;2023-09-18T15:39:14;96120.34;;;20.89;62.02
57232;BME280;43488;46.934;8.276;2023-09-18T15:41:41;96118.75;;;20.88;61.88
57232;BME280;43488;46.934;8.276;2023-09-18T15:44:09;96108.88;;;20.84;59.77
57232;BME280;43488;46.934;8.276;2023-09-18T15:47:07;96108.66;;;20.80;59.23
57232;BME280;43488;46.934;8.276;2023-09-18T15:49:34;96091.34;;;20.72;59.34
57232;BME280;43488;46.934;8.276;2023-09-18T15:52:02;96091.31;;;20.78;59.01
57232;BME280;43488;46.934;8.276;2023-09-18T15:54:30;96080.31;;;20.79;59.47
57232;BME280;43488;46.934;8.276;2023-09-18T15:56:57;96083.97;;;20.88;60.73
57232;BME280;43488;46.934;8.276;2023-09-18T15:59:39;96080.59;;;21.07;60.83
57232;BME280;43488;46.934;8.276;2023-09-18T16:04:43;96065.56;;;21.35;58.66
57232;BME280;43488;46.934;8.276;2023-09-18T16:07:10;96055.19;;;21.52;59.30
57232;BME280;43488;46.934;8.276;2023-09-18T16:09:39;96050.84;;;21.56;58.42
57232;BME280;43488;46.934;8.276;2023-09-18T16:12:16;96043.47;;;21.67;60.67
57232;BME280;43488;46.934;8.276;2023-09-18T16:15:18;96039.97;;;21.66;59.15
57232;BME280;43488;46.934;8.276;2023-09-18T16:20:28;96018.84;;;21.65;58.01
57232;BME280;43488;46.934;8.276;2023-09-18T16:22:56;96020.81;;;21.59;58.83
57232;BME280;43488;46.934;8.276;2023-09-18T16:25:24;96018.50;;;21.52;58.73
57232;BME280;43488;46.934;8.276;2023-09-18T16:28:38;96016.41;;;21.49;58.49
57232;BME280;43488;46.934;8.276;2023-09-18T16:35:32;96028.31;;;21.38;59.31
57232;BME280;43488;46.934;8.276;2023-09-18T16:37:59;96026.72;;;21.37;60.21
57232;BME280;43488;46.934;8.276;2023-09-18T16:40:26;96020.84;;;21.35;60.18
57232;BME280;43488;46.934;8.276;2023-09-18T16:45:23;96021.00;;;21.20;65.98
57232;BME280;43488;46.934;8.276;2023-09-18T16:50:55;96023.25;;;21.13;62.43
57232;BME280;43488;46.934;8.276;2023-09-18T16:53:22;96028.97;;;21.01;69.37
57232;BME280;43488;46.934;8.276;2023-09-18T16:55:52;96015.50;;;20.87;67.47
57232;BME280;43488;46.934;8.276;2023-09-18T16:58:20;96021.47;;;20.79;67.94
57232;BME280;43488;46.934;8.276;2023-09-18T17:00:47;96031.13;;;20.75;70.01
57232;BME280;43488;46.934;8.276;2023-09-18T17:03:26;96015.72;;;20.67;71.40
57232;BME280;43488;46.934;8.276;2023-09-18T17:05:54;96022.78;;;20.58;74.06